Time;durP1;ratioP1;P1;durP2;ratioP2;P2;SDS_P1;SDS_P2;PMS_P1;PMS_P2;Temp;Humidity;BMP_temperature;BMP_pressure;BME280_temperature;BME280_humidity;BME280_pressure;Samples;Min_cycle;Max_cycle;Signal;HPM_P1;HPM_P2
2022/12/24 00:00:57;;;;;;;0.57;0.50;;;;;;;;;;5106692;28;20058;-44
2022/12/24 00:03:24;;;;;;;0.40;0.40;;;;;;;;;;5106332;28;20133;-44
2022/12/24 00:05:50;;;;;;;1.08;0.47;;;;;;;;;;5105179;28;20019;-45
2022/12/24 00:08:16;;;;;;;0.50;0.50;;;;;;;;;;5106122;28;20073;-43
2022/12/24 00:10:44;;;;;;;1.33;0.50;;;;;;;;;;5105062;28;20051;-44
2022/12/24 00:13:10;;;;;;;0.40;0.40;;;;;;;;;;5105841;28;20458;-46
2022/12/24 00:15:35;;;;;;;0.50;0.50;;;;;;;;;;5104363;28;20031;-46
2022/12/24 00:18:01;;;;;;;0.68;0.40;;;;;;;;;;5106187;28;20042;-44
2022/12/24 00:20:27;;;;;;;0.75;0.50;;;;;;;;;;5086531;28;20499;-44
2022/12/24 00:22:54;;;;;;;0.40;0.40;;;;;;;;;;5091934;28;20035;-43
2022/12/24 00:25:20;;;;;;;0.35;0.35;;;;;;;;;;5085655;28;20105;-46
2022/12/24 00:27:46;;;;;;;0.50;0.50;;;;;;;;;;5085286;28;20620;-44
2022/12/24 00:30:12;;;;;;;0.47;0.43;;;;;;;;;;5085824;28;20032;-45
2022/12/24 00:32:38;;;;;;;0.38;0.35;;;;;;;;;;5084983;28;20020;-47
2022/12/24 00:35:05;;;;;;;0.40;0.40;;;;;;;;;;5067295;28;20033;-44
2022/12/24 00:37:31;;;;;;;0.30;0.30;;;;;;;;;;5099957;28;20039;-44
2022/12/24 00:39:56;;;;;;;0.40;0.40;;;;;;;;;;5105544;28;20111;-44
2022/12/24 00:42:22;;;;;;;0.40;0.40;;;;;;;;;;5105716;28;20028;-45
2022/12/24 00:44:49;;;;;;;0.32;0.32;;;;;;;;;;5105556;28;20084;-44
2022/12/24 00:47:15;;;;;;;0.77;0.40;;;;;;;;;;5104504;28;20393;-44
2022/12/24 00:49:41;;;;;;;0.82;0.30;;;;;;;;;;5067319;28;20020;-44
2022/12/24 00:52:07;;;;;;;0.30;0.30;;;;;;;;;;5088072;28;20100;-47
2022/12/24 00:54:33;;;;;;;0.40;0.30;;;;;;;;;;5105202;28;20058;-45
2022/12/24 00:56:59;;;;;;;0.30;0.30;;;;;;;;;;5105664;28;20020;-46
2022/12/24 00:59:26;;;;;;;0.40;0.40;;;;;;;;;;5104893;28;20091;-47
2022/12/24 01:01:52;;;;;;;0.30;0.30;;;;;;;;;;5086703;28;20044;-44
2022/12/24 06:12:30;;;;;;;0.38;0.38;;;;;;;;;;5077981;28;20150;-46
2022/12/24 06:14:56;;;;;;;0.50;0.30;;;;;;;;;;5068870;28;20108;-46
2022/12/24 06:17:22;;;;;;;0.40;0.40;;;;;;;;;;5051433;28;20123;-47
2022/12/24 06:19:48;;;;;;;0.45;0.40;;;;;;;;;;5068436;28;20040;-48
2022/12/24 06:22:15;;;;;;;0.30;0.30;;;;;;;;;;5068620;28;20035;-46
2022/12/24 06:24:42;;;;;;;0.32;0.32;;;;;;;;;;5068566;28;20025;-47
2022/12/24 06:27:08;;;;;;;0.50;0.50;;;;;;;;;;5068181;28;20035;-48
2022/12/24 06:29:34;;;;;;;0.57;0.55;;;;;;;;;;5068526;28;20029;-46
2022/12/24 06:32:00;;;;;;;0.60;0.55;;;;;;;;;;5068445;28;20457;-49
2022/12/24 06:34:26;;;;;;;1.05;0.80;;;;;;;;;;5068333;28;20107;-44
2022/12/24 06:36:53;;;;;;;1.10;0.70;;;;;;;;;;5068715;28;20031;-46
2022/12/24 06:39:19;;;;;;;0.75;0.55;;;;;;;;;;5068223;28;20039;-49
2022/12/24 06:41:45;;;;;;;0.65;0.57;;;;;;;;;;5068295;28;20028;-47
2022/12/24 06:44:11;;;;;;;0.55;0.55;;;;;;;;;;5068011;28;20036;-46
2022/12/24 06:46:38;;;;;;;0.60;0.60;;;;;;;;;;5068246;28;20104;-48
2022/12/24 06:49:04;;;;;;;0.47;0.47;;;;;;;;;;5087382;28;20060;-49
2022/12/24 06:51:30;;;;;;;0.50;0.50;;;;;;;;;;5088312;28;20078;-48
2022/12/24 06:53:57;;;;;;;0.70;0.65;;;;;;;;;;5088376;28;20027;-45
2022/12/24 06:56:23;;;;;;;0.70;0.60;;;;;;;;;;5088502;28;20023;-45
2022/12/24 06:58:49;;;;;;;0.63;0.63;;;;;;;;;;5088088;28;20497;-45
2022/12/24 07:01:16;;;;;;;0.75;0.75;;;;;;;;;;5087919;28;20020;-47
2022/12/24 07:03:43;;;;;;;0.77;0.60;;;;;;;;;;5068600;28;20078;-44
2022/12/24 07:06:20;;;;;;;0.50;0.50;;;;;;;;;;5069564;28;20103;-46
2022/12/24 07:08:46;;;;;;;0.90;0.80;;;;;;;;;;5067634;28;20754;-45
2022/12/24 07:11:12;;;;;;;0.90;0.80;;;;;;;;;;5086927;28;20069;-48
2022/12/24 07:13:38;;;;;;;1.10;1.00;;;;;;;;;;5106874;28;20500;-48
2022/12/24 07:16:04;;;;;;;1.00;0.90;;;;;;;;;;5108371;28;20023;-46
2022/12/24 07:18:31;;;;;;;1.02;0.93;;;;;;;;;;5108400;28;20039;-46
2022/12/24 07:20:58;;;;;;;1.60;1.50;;;;;;;;;;5108089;28;20023;-45
2022/12/24 07:23:25;;;;;;;3.92;1.50;;;;;;;;;;5106648;28;20110;-49
2022/12/24 07:25:51;;;;;;;1.80;1.30;;;;;;;;;;5106642;28;20448;-45
2022/12/24 07:28:17;;;;;;;2.00;1.50;;;;;;;;;;5107813;28;20029;-45
2022/12/24 07:30:43;;;;;;;1.55;1.10;;;;;;;;;;5103652;28;20161;-47
2022/12/24 07:33:09;;;;;;;1.40;1.10;;;;;;;;;;5087481;28;20039;-48
2022/12/24 07:35:35;;;;;;;1.52;1.00;;;;;;;;;;5088771;28;20028;-47
2022/12/24 07:38:01;;;;;;;1.20;1.00;;;;;;;;;;5107636;28;20410;-45
2022/12/24 07:40:27;;;;;;;1.05;0.90;;;;;;;;;;5107526;28;20051;-45
2022/12/24 07:42:53;;;;;;;0.95;0.90;;;;;;;;;;5107815;28;20056;-49
2022/12/24 07:45:19;;;;;;;1.08;0.88;;;;;;;;;;5107312;28;20520;-44
2022/12/24 07:47:45;;;;;;;1.30;0.98;;;;;;;;;;5104341;28;20070;-46
2022/12/24 07:50:11;;;;;;;1.05;0.90;;;;;;;;;;5104494;28;20125;-45
2022/12/24 07:52:37;;;;;;;0.93;0.82;;;;;;;;;;5108671;28;20024;-45
2022/12/24 07:55:03;;;;;;;1.05;0.95;;;;;;;;;;5108630;28;20064;-45
2022/12/24 07:57:29;;;;;;;1.55;0.80;;;;;;;;;;5108414;28;20043;-44
2022/12/24 07:59:55;;;;;;;0.95;0.70;;;;;;;;;;5108544;28;20106;-44
2022/12/24 08:02:21;;;;;;;1.00;0.90;;;;;;;;;;5108580;28;20031;-45
2022/12/24 08:04:47;;;;;;;0.80;0.80;;;;;;;;;;5103481;28;20115;-47
2022/12/24 08:07:13;;;;;;;1.00;0.80;;;;;;;;;;5096354;28;20027;-44
2022/12/24 08:09:39;;;;;;;1.40;1.05;;;;;;;;;;5108243;28;20463;-46
2022/12/24 08:12:05;;;;;;;1.25;1.00;;;;;;;;;;5107487;28;20032;-46
2022/12/24 08:14:31;;;;;;;1.38;0.80;;;;;;;;;;5120338;27;20401;-49
2022/12/24 08:16:57;;;;;;;1.55;1.20;;;;;;;;;;5129018;27;20051;-45
2022/12/24 08:19:24;;;;;;;1.00;0.90;;;;;;;;;;5115140;27;20119;-46
2022/12/24 08:21:50;;;;;;;1.20;0.90;;;;;;;;;;5097817;28;20031;-45
2022/12/24 08:24:16;;;;;;;0.98;0.93;;;;;;;;;;5107023;28;20382;-45
2022/12/24 08:26:42;;;;;;;1.88;1.38;;;;;;;;;;5107718;28;20036;-48
2022/12/24 08:29:08;;;;;;;1.25;1.00;;;;;;;;;;5107860;28;20027;-46
2022/12/24 08:31:35;;;;;;;1.20;1.10;;;;;;;;;;5108180;28;20030;-45
2022/12/24 08:34:02;;;;;;;1.88;1.40;;;;;;;;;;5094059;28;20035;-47
2022/12/24 08:36:28;;;;;;;1.52;0.95;;;;;;;;;;5097512;28;20093;-46
2022/12/24 08:38:54;;;;;;;1.65;1.30;;;;;;;;;;5108474;28;20802;-48
2022/12/24 08:41:20;;;;;;;1.50;1.40;;;;;;;;;;5107770;28;20031;-45
2022/12/24 08:43:46;;;;;;;1.63;1.42;;;;;;;;;;5108178;28;20020;-44
2022/12/24 08:46:13;;;;;;;1.58;1.33;;;;;;;;;;5107995;28;20028;-48
2022/12/24 08:48:39;;;;;;;1.95;1.42;;;;;;;;;;5100898;28;20398;-46
2022/12/24 08:51:09;;;;;;;1.08;1.00;;;;;;;;;;5092942;28;20038;-46
2022/12/24 08:53:35;;;;;;;1.10;1.00;;;;;;;;;;5107312;28;20024;-47
2022/12/24 08:56:02;;;;;;;2.85;1.20;;;;;;;;;;5107222;28;20139;-44
2022/12/24 08:58:29;;;;;;;1.38;1.27;;;;;;;;;;5106644;28;20103;-47
2022/12/24 09:00:55;;;;;;;1.92;1.50;;;;;;;;;;5106888;28;20358;-46
2022/12/24 09:03:21;;;;;;;1.77;1.58;;;;;;;;;;5091063;28;20028;-45
2022/12/24 09:05:47;;;;;;;2.17;1.75;;;;;;;;;;5093012;28;20039;-48
2022/12/24 09:08:12;;;;;;;1.92;1.70;;;;;;;;;;5103009;28;20082;-47
2022/12/24 09:10:38;;;;;;;1.95;1.55;;;;;;;;;;5106099;28;20188;-45
2022/12/24 09:13:04;;;;;;;1.88;1.50;;;;;;;;;;5106217;28;20426;-46
2022/12/24 09:15:31;;;;;;;1.63;1.45;;;;;;;;;;5106513;28;20506;-47
2022/12/24 09:17:57;;;;;;;2.40;1.80;;;;;;;;;;5104936;28;20537;-47
2022/12/24 09:20:23;;;;;;;1.70;1.60;;;;;;;;;;5105338;28;20214;-45
2022/12/24 09:22:49;;;;;;;2.53;1.70;;;;;;;;;;5100000;28;20115;-45
2022/12/24 09:25:15;;;;;;;2.35;1.30;;;;;;;;;;5085601;28;20115;-45
2022/12/24 09:27:41;;;;;;;1.70;1.60;;;;;;;;;;5085448;28;20028;-45
2022/12/24 09:30:07;;;;;;;1.20;1.10;;;;;;;;;;5098214;28;20050;-45
2022/12/24 09:32:34;;;;;;;1.45;1.27;;;;;;;;;;5106180;28;20047;-44
2022/12/24 09:35:00;;;;;;;1.40;1.30;;;;;;;;;;5106417;28;20382;-44
2022/12/24 09:37:26;;;;;;;1.45;1.35;;;;;;;;;;5103934;28;20399;-45
2022/12/24 09:39:52;;;;;;;1.63;1.40;;;;;;;;;;5108715;28;20054;-45
2022/12/24 09:42:38;;;;;;;2.28;1.38;;;;;;;;;;5097667;28;20043;-46
2022/12/24 09:45:06;;;;;;;1.13;1.02;;;;;;;;;;5111336;28;20028;-45
2022/12/24 09:47:38;;;;;;;1.60;1.23;;;;;;;;;;5109352;28;20031;-45
2022/12/24 09:50:06;;;;;;;1.20;1.10;;;;;;;;;;5107163;28;20015;-44
2022/12/24 09:52:34;;;;;;;1.13;1.02;;;;;;;;;;5095789;28;20621;-45
2022/12/24 09:55:06;;;;;;;1.50;1.40;;;;;;;;;;5093642;28;20059;-47
2022/12/24 09:57:35;;;;;;;1.30;1.20;;;;;;;;;;5109453;28;20028;-46
2022/12/24 10:00:02;;;;;;;1.05;1.00;;;;;;;;;;5092211;28;20134;-45
2022/12/24 10:02:28;;;;;;;1.55;1.20;;;;;;;;;;5110769;28;20058;-44
2022/12/24 10:04:54;;;;;;;1.20;1.10;;;;;;;;;;5111226;28;20386;-44
2022/12/24 10:07:39;;;;;;;1.13;1.02;;;;;;;;;;5109589;28;20127;-45
2022/12/24 10:10:11;;;;;;;0.93;0.82;;;;;;;;;;5109143;28;20032;-44
2022/12/24 10:12:40;;;;;;;0.80;0.77;;;;;;;;;;5109485;28;20027;-46
2022/12/24 10:15:06;;;;;;;1.10;0.95;;;;;;;;;;5109550;28;20028;-47
2022/12/24 10:17:51;;;;;;;1.60;1.50;;;;;;;;;;5109288;28;20030;-45
2022/12/24 10:20:20;;;;;;;1.10;1.00;;;;;;;;;;5109489;28;20039;-46
2022/12/24 10:22:55;;;;;;;1.10;1.00;;;;;;;;;;5109756;28;20024;-47
2022/12/24 10:25:29;;;;;;;1.27;1.17;;;;;;;;;;5109510;28;20060;-48
2022/12/24 10:27:57;;;;;;;1.40;1.23;;;;;;;;;;5109664;28;20028;-45
2022/12/24 10:30:24;;;;;;;2.28;1.77;;;;;;;;;;5109468;28;20048;-47
2022/12/24 10:32:51;;;;;;;3.40;1.90;;;;;;;;;;5109448;28;20622;-47
2022/12/24 10:35:17;;;;;;;6.45;3.75;;;;;;;;;;5109248;28;20070;-48
2022/12/24 10:37:46;;;;;;;5.47;2.92;;;;;;;;;;5109149;28;20028;-44
2022/12/24 10:40:25;;;;;;;3.92;2.55;;;;;;;;;;5108811;28;20115;-46
2022/12/24 10:42:51;;;;;;;4.10;2.28;;;;;;;;;;5109422;28;20036;-47
2022/12/24 10:45:20;;;;;;;4.35;2.30;;;;;;;;;;5108884;28;20478;-46
2022/12/24 10:47:49;;;;;;;2.63;1.90;;;;;;;;;;5109118;28;20072;-45
2022/12/24 10:50:23;;;;;;;3.22;2.00;;;;;;;;;;5108937;28;20494;-46
2022/12/24 10:52:52;;;;;;;2.72;1.70;;;;;;;;;;5108880;28;20023;-45
2022/12/24 10:55:18;;;;;;;2.63;1.50;;;;;;;;;;5108956;28;20034;-45
2022/12/24 10:57:45;;;;;;;2.55;1.42;;;;;;;;;;5108779;28;20027;-45
2022/12/24 11:00:21;;;;;;;1.77;1.30;;;;;;;;;;5108399;28;20038;-44
2022/12/24 11:02:48;;;;;;;1.65;1.48;;;;;;;;;;5108422;28;20055;-44
2022/12/24 11:05:27;;;;;;;1.30;1.20;;;;;;;;;;5108056;28;20456;-45
2022/12/24 11:08:04;;;;;;;1.60;1.30;;;;;;;;;;5108357;28;20458;-46
2022/12/24 11:10:30;;;;;;;2.35;1.60;;;;;;;;;;5107923;28;20057;-45
2022/12/24 11:12:57;;;;;;;1.70;1.55;;;;;;;;;;5108744;28;20428;-46
2022/12/24 11:15:29;;;;;;;1.90;1.33;;;;;;;;;;5108276;28;20506;-46
2022/12/24 11:18:14;;;;;;;1.52;1.40;;;;;;;;;;5108252;28;20024;-45
2022/12/24 11:20:40;;;;;;;1.65;1.30;;;;;;;;;;5108098;28;20036;-45
2022/12/24 11:23:13;;;;;;;1.33;1.23;;;;;;;;;;5107975;28;20031;-46
2022/12/24 11:25:41;;;;;;;1.55;1.08;;;;;;;;;;5107851;28;20027;-46
2022/12/24 11:28:20;;;;;;;0.88;0.88;;;;;;;;;;5107773;28;20058;-46
2022/12/24 11:31:06;;;;;;;1.17;1.08;;;;;;;;;;5107494;28;20027;-45
2022/12/24 11:33:45;;;;;;;1.83;1.10;;;;;;;;;;5093585;28;20035;-44
2022/12/24 11:36:12;;;;;;;1.20;1.08;;;;;;;;;;5107687;28;20024;-45
2022/12/24 11:38:38;;;;;;;0.75;0.75;;;;;;;;;;5107698;28;20464;-47
2022/12/24 11:41:10;;;;;;;1.10;1.00;;;;;;;;;;5107602;28;20406;-45
2022/12/24 11:43:50;;;;;;;1.00;0.90;;;;;;;;;;5107693;28;20032;-49
2022/12/24 11:46:35;;;;;;;1.27;1.08;;;;;;;;;;5107276;28;20562;-47
2022/12/24 11:49:24;;;;;;;1.08;0.98;;;;;;;;;;5105759;28;20114;-46
2022/12/24 11:51:59;;;;;;;1.02;0.88;;;;;;;;;;5096623;28;20048;-44
2022/12/24 11:54:31;;;;;;;1.10;1.00;;;;;;;;;;5103583;28;20053;-45
2022/12/24 11:56:59;;;;;;;1.25;1.15;;;;;;;;;;5087264;28;20399;-46
2022/12/24 11:59:31;;;;;;;1.08;0.98;;;;;;;;;;5086767;28;20024;-44
2022/12/24 12:01:59;;;;;;;1.17;0.98;;;;;;;;;;5086321;28;20035;-45
2022/12/24 12:04:30;;;;;;;1.27;1.10;;;;;;;;;;5087233;28;20024;-45
2022/12/24 12:07:02;;;;;;;1.40;1.30;;;;;;;;;;5086942;28;20031;-45
2022/12/24 12:09:31;;;;;;;2.58;1.50;;;;;;;;;;5089766;28;20408;-45
2022/12/24 12:12:00;;;;;;;1.50;1.33;;;;;;;;;;5107497;28;20084;-45
2022/12/24 12:14:33;;;;;;;1.08;0.95;;;;;;;;;;5106979;28;20397;-44
2022/12/24 12:17:18;;;;;;;1.10;1.00;;;;;;;;;;5105054;28;20054;-46
2022/12/24 12:19:49;;;;;;;1.55;1.20;;;;;;;;;;5100836;28;20096;-45
2022/12/24 12:22:23;;;;;;;0.90;0.90;;;;;;;;;;5108055;28;20027;-44
2022/12/24 12:24:52;;;;;;;0.90;0.82;;;;;;;;;;5108424;28;20024;-45
2022/12/24 12:27:31;;;;;;;1.75;1.05;;;;;;;;;;5096430;28;20111;-47
2022/12/24 12:30:00;;;;;;;1.00;0.90;;;;;;;;;;5107621;28;20443;-45
2022/12/24 12:32:47;;;;;;;2.13;1.10;;;;;;;;;;5107947;28;20090;-44
2022/12/24 12:35:31;;;;;;;1.23;0.95;;;;;;;;;;5090841;28;20158;-45
2022/12/24 12:38:00;;;;;;;1.55;1.10;;;;;;;;;;5108431;28;20095;-47
2022/12/24 12:40:32;;;;;;;1.27;1.17;;;;;;;;;;5108139;28;20096;-46
2022/12/24 12:43:10;;;;;;;0.80;0.80;;;;;;;;;;5108328;28;20024;-45
2022/12/24 12:45:43;;;;;;;1.02;0.93;;;;;;;;;;5108051;28;20111;-46
2022/12/24 12:48:22;;;;;;;1.13;1.00;;;;;;;;;;5108007;28;20020;-44
2022/12/24 12:50:48;;;;;;;0.90;0.90;;;;;;;;;;5089933;28;20728;-45
2022/12/24 12:53:17;;;;;;;1.50;0.90;;;;;;;;;;5108158;28;20119;-48
2022/12/24 12:55:54;;;;;;;0.85;0.80;;;;;;;;;;5108010;28;20122;-46
2022/12/24 12:58:39;;;;;;;1.08;0.98;;;;;;;;;;5107766;28;20041;-47
2022/12/24 13:01:12;;;;;;;1.17;0.90;;;;;;;;;;5108002;28;20115;-45
2022/12/24 13:03:53;;;;;;;0.80;0.80;;;;;;;;;;5108309;28;20030;-45
2022/12/24 13:06:38;;;;;;;0.80;0.80;;;;;;;;;;5107960;28;20036;-46
2022/12/24 13:09:19;;;;;;;1.20;1.10;;;;;;;;;;5104658;28;20108;-45
2022/12/24 13:12:03;;;;;;;2.10;0.85;;;;;;;;;;5106492;28;20023;-48
2022/12/24 13:14:35;;;;;;;1.25;1.15;;;;;;;;;;5110553;28;20127;-44
2022/12/24 13:17:20;;;;;;;0.98;0.85;;;;;;;;;;5110956;28;20057;-45
2022/12/24 13:19:48;;;;;;;1.20;0.80;;;;;;;;;;5110880;28;20024;-46
2022/12/24 13:22:16;;;;;;;0.77;0.77;;;;;;;;;;5110654;28;20051;-47
2022/12/24 13:24:48;;;;;;;0.90;0.90;;;;;;;;;;5110754;28;20024;-45
2022/12/24 13:27:14;;;;;;;0.90;0.90;;;;;;;;;;5110462;28;20478;-48
2022/12/24 13:29:49;;;;;;;1.58;1.10;;;;;;;;;;5110624;28;20056;-48
2022/12/24 13:32:21;;;;;;;1.10;1.00;;;;;;;;;;5110189;28;20103;-47
2022/12/24 13:34:52;;;;;;;0.98;0.98;;;;;;;;;;5092195;28;20506;-45
2022/12/24 13:37:20;;;;;;;1.20;0.88;;;;;;;;;;5110760;28;20571;-46
2022/12/24 13:40:05;;;;;;;1.40;1.13;;;;;;;;;;5110318;28;20020;-45
2022/12/24 13:42:49;;;;;;;1.20;1.10;;;;;;;;;;5110314;28;20031;-44
2022/12/24 13:45:30;;;;;;;0.85;0.80;;;;;;;;;;5110535;28;20032;-45
2022/12/24 13:47:57;;;;;;;0.80;0.80;;;;;;;;;;5110522;28;20058;-47
2022/12/24 13:50:29;;;;;;;1.25;1.15;;;;;;;;;;5109862;28;20043;-46
2022/12/24 13:52:55;;;;;;;1.00;0.90;;;;;;;;;;5109405;28;20030;-46
2022/12/24 13:55:21;;;;;;;1.08;0.95;;;;;;;;;;5099636;27;20054;-47
2022/12/24 13:57:56;;;;;;;0.80;0.80;;;;;;;;;;5108437;28;20104;-45
2022/12/24 14:00:22;;;;;;;1.10;1.00;;;;;;;;;;5108564;28;20059;-44
2022/12/24 14:02:53;;;;;;;1.00;0.93;;;;;;;;;;5108149;28;20054;-46
2022/12/24 14:05:32;;;;;;;2.22;1.00;;;;;;;;;;5109632;28;20024;-45
2022/12/24 14:07:59;;;;;;;1.02;0.93;;;;;;;;;;5095676;28;20039;-43
2022/12/24 14:10:37;;;;;;;1.10;1.00;;;;;;;;;;5090644;28;20020;-44
2022/12/24 14:13:07;;;;;;;1.20;1.00;;;;;;;;;;5090590;28;20028;-44
2022/12/24 14:15:56;;;;;;;1.00;0.90;;;;;;;;;;5089273;28;20020;-45
2022/12/24 14:18:24;;;;;;;1.33;1.08;;;;;;;;;;5076070;28;20044;-45
2022/12/24 14:20:53;;;;;;;0.73;0.73;;;;;;;;;;5089216;28;20036;-45
2022/12/24 14:23:28;;;;;;;1.42;0.90;;;;;;;;;;5088934;28;20039;-46
2022/12/24 14:25:54;;;;;;;0.85;0.75;;;;;;;;;;5088362;28;20085;-46
2022/12/24 14:28:23;;;;;;;0.90;0.80;;;;;;;;;;5089162;28;20032;-43
2022/12/24 14:31:11;;;;;;;0.80;0.80;;;;;;;;;;5089126;28;20031;-48
2022/12/24 14:33:36;;;;;;;1.13;0.80;;;;;;;;;;5088391;28;20024;-48
2022/12/24 14:36:03;;;;;;;1.00;0.90;;;;;;;;;;5088963;28;20380;-46
2022/12/24 14:38:29;;;;;;;0.80;0.80;;;;;;;;;;5088962;28;20023;-45
2022/12/24 14:41:00;;;;;;;1.00;0.90;;;;;;;;;;5089447;28;20073;-44
2022/12/24 14:43:34;;;;;;;1.13;1.02;;;;;;;;;;5089137;28;20024;-44
2022/12/24 14:46:00;;;;;;;;;;;;;;;;;;5089629;28;20074;-44
2022/12/24 14:48:47;;;;;;;0.80;0.80;;;;;;;;;;5089105;28;19908;-44
2022/12/24 14:51:20;;;;;;;1.30;1.20;;;;;;;;;;5037101;28;20036;-45
2022/12/24 14:54:05;;;;;;;1.27;1.10;;;;;;;;;;5088298;28;20074;-45
2022/12/24 14:56:32;;;;;;;0.90;0.90;;;;;;;;;;5088974;28;20052;-45
2022/12/24 14:59:03;;;;;;;1.33;0.90;;;;;;;;;;5089102;28;20035;-43
2022/12/24 15:01:30;;;;;;;0.90;0.90;;;;;;;;;;5088458;28;20108;-44
2022/12/24 15:04:00;;;;;;;1.10;1.00;;;;;;;;;;5088857;28;20028;-45
2022/12/24 15:06:26;;;;;;;1.35;0.90;;;;;;;;;;5088621;28;20099;-47
2022/12/24 15:08:54;;;;;;;1.17;0.93;;;;;;;;;;5088274;28;20027;-44
2022/12/24 15:11:21;;;;;;;1.10;1.00;;;;;;;;;;5087942;28;20552;-45
2022/12/24 15:13:52;;;;;;;1.50;1.00;;;;;;;;;;5088234;28;20077;-44
2022/12/24 15:16:22;;;;;;;1.58;1.20;;;;;;;;;;5088482;28;20095;-45
2022/12/24 15:18:51;;;;;;;1.05;0.85;;;;;;;;;;5088392;28;20036;-45
2022/12/24 15:21:19;;;;;;;0.93;0.90;;;;;;;;;;5087785;28;20024;-44
2022/12/24 15:23:51;;;;;;;1.15;1.05;;;;;;;;;;5087919;28;20028;-45
2022/12/24 15:26:27;;;;;;;1.58;1.08;;;;;;;;;;5088050;28;20300;-43
2022/12/24 15:28:54;;;;;;;1.65;1.20;;;;;;;;;;5087891;28;20054;-44
2022/12/24 15:31:21;;;;;;;1.42;1.23;;;;;;;;;;5088160;28;20016;-45
2022/12/24 15:33:48;;;;;;;1.15;0.90;;;;;;;;;;5089559;28;20565;-44
2022/12/24 15:36:15;;;;;;;1.00;1.00;;;;;;;;;;5103836;28;20028;-44
2022/12/24 15:38:44;;;;;;;1.20;1.00;;;;;;;;;;5107695;28;20062;-43
2022/12/24 15:41:18;;;;;;;1.45;1.15;;;;;;;;;;5089824;28;20104;-44
2022/12/24 15:43:45;;;;;;;1.65;1.23;;;;;;;;;;5087743;28;20028;-44
2022/12/24 15:46:17;;;;;;;1.60;1.15;;;;;;;;;;5087841;28;20031;-45
2022/12/24 15:48:44;;;;;;;1.20;1.10;;;;;;;;;;5087834;28;20032;-47
2022/12/24 15:51:11;;;;;;;1.63;1.15;;;;;;;;;;5088277;28;20020;-49
2022/12/24 15:53:42;;;;;;;1.48;1.20;;;;;;;;;;5104511;28;20350;-46
2022/12/24 15:56:10;;;;;;;1.75;1.02;;;;;;;;;;5106981;28;20085;-47
2022/12/24 15:58:41;;;;;;;1.55;1.23;;;;;;;;;;5109453;28;20114;-46
2022/12/24 16:01:16;;;;;;;2.10;1.20;;;;;;;;;;5108414;28;20099;-47
2022/12/24 16:03:51;;;;;;;1.35;1.25;;;;;;;;;;5107842;28;20027;-45
2022/12/24 16:06:17;;;;;;;1.27;1.17;;;;;;;;;;5107435;28;20023;-45
2022/12/24 16:08:44;;;;;;;2.25;1.20;;;;;;;;;;5107722;28;20038;-48
2022/12/24 16:11:29;;;;;;;1.35;1.25;;;;;;;;;;5107444;28;20090;-46
2022/12/24 16:14:03;;;;;;;1.90;1.50;;;;;;;;;;5107958;28;20027;-49
2022/12/24 16:16:40;;;;;;;1.30;1.13;;;;;;;;;;5107675;28;20024;-45
2022/12/24 16:19:14;;;;;;;1.40;1.30;;;;;;;;;;5107659;28;20032;-44
2022/12/24 16:21:41;;;;;;;1.67;1.40;;;;;;;;;;5107326;28;20080;-45
2022/12/24 16:24:13;;;;;;;1.75;1.58;;;;;;;;;;5089054;28;20035;-44
2022/12/24 16:26:40;;;;;;;1.98;1.70;;;;;;;;;;5107440;28;20505;-45
2022/12/24 16:29:06;;;;;;;1.70;1.55;;;;;;;;;;5107249;28;20027;-45
2022/12/24 16:31:33;;;;;;;1.67;1.50;;;;;;;;;;5107243;28;20027;-45
2022/12/24 16:34:00;;;;;;;2.40;1.90;;;;;;;;;;5107288;28;20019;-46
2022/12/24 16:36:27;;;;;;;3.38;1.60;;;;;;;;;;5107278;28;20024;-47
2022/12/24 16:44:22;;;;;;;1.88;1.58;;;;;;;;;;5107619;28;20043;-47
2022/12/24 16:46:48;;;;;;;1.90;1.70;;;;;;;;;;5107205;28;20422;-46
2022/12/24 16:49:18;;;;;;;2.03;1.83;;;;;;;;;;5110646;28;20476;-45
2022/12/24 16:51:45;;;;;;;2.30;2.00;;;;;;;;;;5111173;28;20098;-48
2022/12/24 16:54:12;;;;;;;2.55;2.00;;;;;;;;;;5096765;28;20283;-48
2022/12/24 16:56:40;;;;;;;3.40;2.42;;;;;;;;;;5111099;28;20024;-48
2022/12/24 16:59:14;;;;;;;2.53;1.80;;;;;;;;;;5111732;28;20039;-46
2022/12/24 17:01:40;;;;;;;2.42;2.00;;;;;;;;;;5107614;28;20030;-46
2022/12/24 17:04:06;;;;;;;3.63;2.47;;;;;;;;;;5113366;27;20612;-46
2022/12/24 17:06:32;;;;;;;3.35;2.05;;;;;;;;;;5111061;28;20546;-48
2022/12/24 17:08:58;;;;;;;2.10;1.90;;;;;;;;;;5111240;28;20123;-48
2022/12/24 17:11:24;;;;;;;2.25;2.00;;;;;;;;;;5111049;28;20035;-47
2022/12/24 17:13:50;;;;;;;2.17;1.98;;;;;;;;;;5103311;28;20032;-49
2022/12/24 17:16:16;;;;;;;2.22;1.95;;;;;;;;;;5104348;28;20627;-48
2022/12/24 17:18:42;;;;;;;2.75;2.00;;;;;;;;;;5109958;28;20677;-48
2022/12/24 17:21:09;;;;;;;3.20;2.08;;;;;;;;;;5106036;28;20482;-48
2022/12/24 17:23:36;;;;;;;2.75;2.20;;;;;;;;;;5111878;28;20097;-45
2022/12/24 17:26:02;;;;;;;3.13;2.15;;;;;;;;;;5111945;28;20028;-46
2022/12/24 17:28:28;;;;;;;3.22;2.10;;;;;;;;;;5110788;28;20781;-47
2022/12/24 17:30:56;;;;;;;2.65;2.20;;;;;;;;;;5109838;28;20104;-48
2022/12/24 17:33:22;;;;;;;2.78;2.28;;;;;;;;;;5109974;28;20023;-44
2022/12/24 17:35:48;;;;;;;2.80;2.33;;;;;;;;;;5111118;28;20095;-47
2022/12/24 17:38:14;;;;;;;3.28;2.30;;;;;;;;;;5111427;28;20043;-46
2022/12/24 17:40:40;;;;;;;4.20;2.80;;;;;;;;;;5111375;28;20024;-46
2022/12/24 17:43:06;;;;;;;2.67;2.42;;;;;;;;;;5111083;28;20431;-48
2022/12/24 17:45:32;;;;;;;4.03;2.60;;;;;;;;;;5111203;28;20031;-45
2022/12/24 17:47:58;;;;;;;3.25;2.60;;;;;;;;;;5110873;28;20466;-45
2022/12/24 17:50:24;;;;;;;3.50;2.70;;;;;;;;;;5111278;28;20031;-45
2022/12/24 17:52:50;;;;;;;2.72;2.47;;;;;;;;;;5111474;28;20077;-47
2022/12/24 17:55:16;;;;;;;3.40;2.38;;;;;;;;;;5108439;28;20479;-47
2022/12/24 17:57:42;;;;;;;3.78;2.88;;;;;;;;;;5106697;28;20023;-47
2022/12/24 18:00:09;;;;;;;3.75;2.97;;;;;;;;;;5110814;28;20019;-44
2022/12/24 18:02:35;;;;;;;4.60;3.17;;;;;;;;;;5113071;27;20031;-49
2022/12/24 18:05:01;;;;;;;3.95;3.22;;;;;;;;;;5109054;28;20068;-47
2022/12/24 18:07:27;;;;;;;4.05;3.05;;;;;;;;;;5101663;28;20028;-46
2022/12/24 18:09:53;;;;;;;4.28;3.00;;;;;;;;;;5090120;28;20058;-47
2022/12/24 18:12:19;;;;;;;4.35;3.22;;;;;;;;;;5117995;28;20767;-47
2022/12/24 18:14:45;;;;;;;3.53;2.72;;;;;;;;;;5126030;28;20073;-48
2022/12/24 18:17:11;;;;;;;2.85;2.45;;;;;;;;;;5115537;28;20052;-48
2022/12/24 18:19:37;;;;;;;2.60;2.28;;;;;;;;;;5104081;28;20019;-46
2022/12/24 18:22:03;;;;;;;3.58;2.38;;;;;;;;;;5106676;28;20035;-48
2022/12/24 18:24:29;;;;;;;3.20;2.65;;;;;;;;;;5105097;28;20417;-49
2022/12/24 18:26:56;;;;;;;2.50;2.30;;;;;;;;;;5108021;28;20040;-48
2022/12/24 18:29:22;;;;;;;2.92;2.20;;;;;;;;;;5107698;28;20039;-48
2022/12/24 18:31:48;;;;;;;3.35;2.83;;;;;;;;;;5108122;28;20115;-49
2022/12/24 18:34:14;;;;;;;2.97;2.58;;;;;;;;;;5079774;28;20030;-46
2022/12/24 18:36:40;;;;;;;2.85;2.55;;;;;;;;;;5087497;28;20027;-46
2022/12/24 18:39:06;;;;;;;3.55;3.05;;;;;;;;;;5098113;28;20023;-49
2022/12/24 18:41:34;;;;;;;2.90;2.60;;;;;;;;;;5108783;28;20556;-48
2022/12/24 18:44:01;;;;;;;2.40;2.20;;;;;;;;;;5108325;28;20028;-45
2022/12/24 18:46:29;;;;;;;2.88;2.50;;;;;;;;;;5103324;28;20081;-49
2022/12/24 18:48:56;;;;;;;2.75;2.38;;;;;;;;;;5088380;28;20528;-48
2022/12/24 18:51:23;;;;;;;3.05;2.70;;;;;;;;;;5107253;28;20418;-49
2022/12/24 18:53:49;;;;;;;3.00;2.47;;;;;;;;;;5107928;28;20142;-47
2022/12/24 18:56:18;;;;;;;2.83;2.45;;;;;;;;;;5125314;28;20019;-48
2022/12/24 18:58:44;;;;;;;3.28;2.78;;;;;;;;;;5109638;28;20023;-50
2022/12/24 19:01:17;;;;;;;2.92;2.53;;;;;;;;;;5104907;28;20023;-48
2022/12/24 19:03:43;;;;;;;3.07;2.70;;;;;;;;;;5105947;28;20636;-48
2022/12/24 19:06:10;;;;;;;3.53;2.75;;;;;;;;;;5107523;28;20148;-49
2022/12/24 19:08:36;;;;;;;3.58;3.20;;;;;;;;;;5106800;28;20069;-46
2022/12/24 19:11:02;;;;;;;3.20;2.85;;;;;;;;;;5105798;28;20023;-49
2022/12/24 19:13:28;;;;;;;4.32;3.10;;;;;;;;;;5069525;28;1086090;-48
2022/12/24 19:15:54;;;;;;;3.55;3.00;;;;;;;;;;5089042;28;20337;-47
2022/12/24 19:18:21;;;;;;;3.75;3.13;;;;;;;;;;5102264;28;20060;-49
2022/12/24 19:20:47;;;;;;;7.60;5.25;;;;;;;;;;5107120;28;20028;-47
2022/12/24 19:23:13;;;;;;;7.50;5.35;;;;;;;;;;5099307;28;20092;-49
2022/12/24 19:25:39;;;;;;;6.68;4.78;;;;;;;;;;5099400;28;20556;-45
2022/12/24 19:28:07;;;;;;;5.63;4.32;;;;;;;;;;5089199;28;20092;-48
2022/12/24 19:30:37;;;;;;;4.82;4.00;;;;;;;;;;5102394;28;20581;-46
2022/12/24 19:33:03;;;;;;;5.75;4.30;;;;;;;;;;5086277;28;20550;-47
2022/12/24 19:35:30;;;;;;;4.68;3.75;;;;;;;;;;5087404;28;20101;-47
2022/12/24 19:37:56;;;;;;;4.70;4.15;;;;;;;;;;5104213;28;20187;-47
2022/12/24 19:40:22;;;;;;;4.18;3.30;;;;;;;;;;5103557;28;21869;-49
2022/12/24 19:42:51;;;;;;;3.42;3.13;;;;;;;;;;5095427;28;20062;-50
2022/12/24 19:45:17;;;;;;;4.18;3.58;;;;;;;;;;5106593;28;20114;-48
2022/12/24 19:47:44;;;;;;;3.92;3.13;;;;;;;;;;5106243;28;20102;-46
2022/12/24 19:50:10;;;;;;;5.32;3.92;;;;;;;;;;5105776;28;20020;-47
2022/12/24 19:52:36;;;;;;;5.03;3.85;;;;;;;;;;5087787;28;20032;-47
2022/12/24 19:55:02;;;;;;;5.97;4.53;;;;;;;;;;5105089;28;20031;-46
2022/12/24 19:57:28;;;;;;;5.70;4.32;;;;;;;;;;5106702;28;20028;-46
2022/12/24 19:59:54;;;;;;;5.13;3.92;;;;;;;;;;5104141;28;20035;-50
2022/12/24 20:02:21;;;;;;;5.88;4.03;;;;;;;;;;5106311;28;20042;-47
2022/12/24 20:04:47;;;;;;;5.70;4.18;;;;;;;;;;5104472;28;20053;-47
2022/12/24 20:07:13;;;;;;;5.85;4.43;;;;;;;;;;5105192;28;20028;-46